sensor_id;sensor_type;location;lat;lon;timestamp;P1;durP1;ratioP1;P2;durP2;ratioP2
6432;SDS011;3249;42.690;23.260;2024-01-25T00:00:24;32.03;;;19.60;;
6432;SDS011;3249;42.690;23.260;2024-01-25T00:02:54;20.30;;;16.50;;
6432;SDS011;3249;42.690;23.260;2024-01-25T00:05:23;23.93;;;16.30;;
6432;SDS011;3249;42.690;23.260;2024-01-25T00:07:53;23.60;;;17.67;;
6432;SDS011;3249;42.690;23.260;2024-01-25T00:10:22;24.67;;;16.73;;
6432;SDS011;3249;42.690;23.260;2024-01-25T00:12:51;25.77;;;15.67;;
6432;SDS011;3249;42.690;23.260;2024-01-25T00:15:20;19.70;;;16.43;;
6432;SDS011;3249;42.690;23.260;2024-01-25T00:17:52;22.03;;;16.20;;
6432;SDS011;3249;42.690;23.260;2024-01-25T00:20:22;26.83;;;16.67;;
6432;SDS011;3249;42.690;23.260;2024-01-25T00:22:51;22.37;;;16.63;;
6432;SDS011;3249;42.690;23.260;2024-01-25T00:25:21;21.83;;;14.57;;
6432;SDS011;3249;42.690;23.260;2024-01-25T00:27:50;24.27;;;15.43;;
6432;SDS011;3249;42.690;23.260;2024-01-25T00:30:19;22.90;;;15.70;;
6432;SDS011;3249;42.690;23.260;2024-01-25T00:32:49;24.27;;;16.77;;
6432;SDS011;3249;42.690;23.260;2024-01-25T00:35:21;24.53;;;18.10;;
6432;SDS011;3249;42.690;23.260;2024-01-25T00:37:51;23.47;;;17.93;;
6432;SDS011;3249;42.690;23.260;2024-01-25T00:40:21;25.60;;;18.43;;
6432;SDS011;3249;42.690;23.260;2024-01-25T00:42:50;40.40;;;25.57;;
6432;SDS011;3249;42.690;23.260;2024-01-25T00:45:22;28.90;;;20.87;;
6432;SDS011;3249;42.690;23.260;2024-01-25T00:47:52;30.80;;;20.13;;
6432;SDS011;3249;42.690;23.260;2024-01-25T00:50:25;23.20;;;17.00;;
6432;SDS011;3249;42.690;23.260;2024-01-25T00:52:55;24.93;;;16.70;;
6432;SDS011;3249;42.690;23.260;2024-01-25T00:55:25;20.43;;;14.20;;
6432;SDS011;3249;42.690;23.260;2024-01-25T00:57:55;14.00;;;11.30;;
6432;SDS011;3249;42.690;23.260;2024-01-25T01:00:26;13.60;;;11.00;;
6432;SDS011;3249;42.690;23.260;2024-01-25T01:02:56;15.00;;;11.57;;
6432;SDS011;3249;42.690;23.260;2024-01-25T01:05:32;15.07;;;10.20;;
6432;SDS011;3249;42.690;23.260;2024-01-25T01:08:02;15.57;;;12.83;;
6432;SDS011;3249;42.690;23.260;2024-01-25T01:10:33;14.30;;;10.57;;
6432;SDS011;3249;42.690;23.260;2024-01-25T01:13:02;14.13;;;9.03;;
6432;SDS011;3249;42.690;23.260;2024-01-25T01:15:31;10.73;;;8.57;;
6432;SDS011;3249;42.690;23.260;2024-01-25T01:18:01;10.40;;;9.33;;
6432;SDS011;3249;42.690;23.260;2024-01-25T01:20:33;8.07;;;6.70;;
6432;SDS011;3249;42.690;23.260;2024-01-25T01:23:03;10.60;;;8.67;;
6432;SDS011;3249;42.690;23.260;2024-01-25T01:25:32;9.23;;;7.83;;
6432;SDS011;3249;42.690;23.260;2024-01-25T01:28:02;11.10;;;7.60;;
6432;SDS011;3249;42.690;23.260;2024-01-25T01:30:31;8.57;;;7.57;;
6432;SDS011;3249;42.690;23.260;2024-01-25T01:33:00;7.57;;;6.87;;
6432;SDS011;3249;42.690;23.260;2024-01-25T01:35:33;6.97;;;6.37;;
6432;SDS011;3249;42.690;23.260;2024-01-25T01:38:03;8.67;;;6.93;;
6432;SDS011;3249;42.690;23.260;2024-01-25T01:40:32;8.60;;;6.90;;
6432;SDS011;3249;42.690;23.260;2024-01-25T01:43:01;8.13;;;7.03;;
6432;SDS011;3249;42.690;23.260;2024-01-25T01:45:30;10.93;;;8.67;;
6432;SDS011;3249;42.690;23.260;2024-01-25T01:48:00;7.53;;;6.63;;
6432;SDS011;3249;42.690;23.260;2024-01-25T01:50:29;12.50;;;9.10;;
6432;SDS011;3249;42.690;23.260;2024-01-25T01:53:01;11.23;;;7.73;;
6432;SDS011;3249;42.690;23.260;2024-01-25T01:55:30;7.60;;;6.70;;
6432;SDS011;3249;42.690;23.260;2024-01-25T01:58:00;8.57;;;5.57;;
6432;SDS011;3249;42.690;23.260;2024-01-25T02:00:30;5.87;;;5.37;;
6432;SDS011;3249;42.690;23.260;2024-01-25T02:03:03;2.40;;;2.30;;
6432;SDS011;3249;42.690;23.260;2024-01-25T02:05:33;2.23;;;2.03;;
6432;SDS011;3249;42.690;23.260;2024-01-25T02:08:05;2.03;;;1.90;;
6432;SDS011;3249;42.690;23.260;2024-01-25T02:10:35;2.00;;;1.90;;
6432;SDS011;3249;42.690;23.260;2024-01-25T02:13:05;1.93;;;1.83;;
6432;SDS011;3249;42.690;23.260;2024-01-25T02:15:34;1.70;;;1.60;;
6432;SDS011;3249;42.690;23.260;2024-01-25T02:18:03;3.73;;;2.13;;
6432;SDS011;3249;42.690;23.260;2024-01-25T02:20:33;1.90;;;1.90;;
6432;SDS011;3249;42.690;23.260;2024-01-25T02:23:05;1.90;;;1.90;;
6432;SDS011;3249;42.690;23.260;2024-01-25T02:25:35;4.20;;;3.77;;
6432;SDS011;3249;42.690;23.260;2024-01-25T02:28:05;3.90;;;3.60;;
6432;SDS011;3249;42.690;23.260;2024-01-25T02:30:35;4.30;;;3.97;;
6432;SDS011;3249;42.690;23.260;2024-01-25T02:33:04;3.70;;;3.40;;
6432;SDS011;3249;42.690;23.260;2024-01-25T02:35:33;3.63;;;3.33;;
6432;SDS011;3249;42.690;23.260;2024-01-25T02:38:05;4.47;;;4.07;;
6432;SDS011;3249;42.690;23.260;2024-01-25T02:40:35;4.83;;;3.47;;
6432;SDS011;3249;42.690;23.260;2024-01-25T02:43:04;3.73;;;3.43;;
6432;SDS011;3249;42.690;23.260;2024-01-25T02:45:33;3.10;;;2.90;;
6432;SDS011;3249;42.690;23.260;2024-01-25T02:48:03;3.37;;;3.17;;
6432;SDS011;3249;42.690;23.260;2024-01-25T02:50:32;3.27;;;2.97;;
6432;SDS011;3249;42.690;23.260;2024-01-25T02:53:05;5.00;;;3.70;;
6432;SDS011;3249;42.690;23.260;2024-01-25T02:55:35;2.27;;;2.17;;
6432;SDS011;3249;42.690;23.260;2024-01-25T02:58:04;1.63;;;1.63;;
6432;SDS011;3249;42.690;23.260;2024-01-25T03:00:33;1.73;;;1.73;;
6432;SDS011;3249;42.690;23.260;2024-01-25T03:03:03;1.97;;;1.87;;
6432;SDS011;3249;42.690;23.260;2024-01-25T03:05:32;2.23;;;2.03;;
6432;SDS011;3249;42.690;23.260;2024-01-25T03:08:03;2.13;;;2.00;;
6432;SDS011;3249;42.690;23.260;2024-01-25T03:10:35;1.60;;;1.60;;
6432;SDS011;3249;42.690;23.260;2024-01-25T03:13:04;1.70;;;1.60;;
6432;SDS011;3249;42.690;23.260;2024-01-25T03:15:34;2.47;;;2.33;;
6432;SDS011;3249;42.690;23.260;2024-01-25T03:18:03;1.80;;;1.70;;
6432;SDS011;3249;42.690;23.260;2024-01-25T03:20:36;2.73;;;2.10;;
6432;SDS011;3249;42.690;23.260;2024-01-25T03:23:08;1.80;;;1.70;;
6432;SDS011;3249;42.690;23.260;2024-01-25T03:25:38;2.20;;;2.10;;
6432;SDS011;3249;42.690;23.260;2024-01-25T03:28:07;2.03;;;1.93;;
6432;SDS011;3249;42.690;23.260;2024-01-25T03:30:38;2.27;;;2.07;;
6432;SDS011;3249;42.690;23.260;2024-01-25T03:33:08;1.97;;;1.87;;
6432;SDS011;3249;42.690;23.260;2024-01-25T03:35:37;1.80;;;1.70;;
6432;SDS011;3249;42.690;23.260;2024-01-25T03:38:09;2.20;;;2.10;;
6432;SDS011;3249;42.690;23.260;2024-01-25T03:40:39;1.80;;;1.70;;
6432;SDS011;3249;42.690;23.260;2024-01-25T03:43:09;1.97;;;1.87;;
6432;SDS011;3249;42.690;23.260;2024-01-25T03:45:38;1.97;;;1.90;;
6432;SDS011;3249;42.690;23.260;2024-01-25T03:48:07;2.50;;;2.07;;
6432;SDS011;3249;42.690;23.260;2024-01-25T03:50:37;1.90;;;1.80;;
6432;SDS011;3249;42.690;23.260;2024-01-25T03:53:06;2.20;;;2.10;;
6432;SDS011;3249;42.690;23.260;2024-01-25T03:55:38;2.07;;;2.00;;
6432;SDS011;3249;42.690;23.260;2024-01-25T03:58:07;2.03;;;1.93;;
6432;SDS011;3249;42.690;23.260;2024-01-25T04:00:39;2.83;;;2.63;;
6432;SDS011;3249;42.690;23.260;2024-01-25T04:03:08;2.30;;;2.20;;
6432;SDS011;3249;42.690;23.260;2024-01-25T04:05:39;3.07;;;2.10;;
6432;SDS011;3249;42.690;23.260;2024-01-25T04:08:08;2.07;;;1.97;;
6432;SDS011;3249;42.690;23.260;2024-01-25T04:10:40;2.20;;;2.10;;
6432;SDS011;3249;42.690;23.260;2024-01-25T04:13:09;1.93;;;1.70;;
6432;SDS011;3249;42.690;23.260;2024-01-25T04:15:38;2.40;;;2.30;;
6432;SDS011;3249;42.690;23.260;2024-01-25T04:18:07;2.83;;;1.90;;
6432;SDS011;3249;42.690;23.260;2024-01-25T04:20:37;2.90;;;2.37;;
6432;SDS011;3249;42.690;23.260;2024-01-25T04:23:06;2.50;;;2.30;;
6432;SDS011;3249;42.690;23.260;2024-01-25T04:25:36;2.47;;;2.37;;
6432;SDS011;3249;42.690;23.260;2024-01-25T04:28:08;3.90;;;2.33;;
6432;SDS011;3249;42.690;23.260;2024-01-25T04:30:37;4.03;;;1.70;;
6432;SDS011;3249;42.690;23.260;2024-01-25T04:33:06;1.97;;;1.87;;
6432;SDS011;3249;42.690;23.260;2024-01-25T04:35:35;2.77;;;2.57;;
6432;SDS011;3249;42.690;23.260;2024-01-25T04:38:05;2.80;;;2.60;;
6432;SDS011;3249;42.690;23.260;2024-01-25T04:40:34;4.03;;;2.70;;
6432;SDS011;3249;42.690;23.260;2024-01-25T04:43:19;3.60;;;3.40;;
6432;SDS011;3249;42.690;23.260;2024-01-25T04:45:48;4.37;;;3.97;;
6432;SDS011;3249;42.690;23.260;2024-01-25T04:48:17;5.37;;;4.13;;
6432;SDS011;3249;42.690;23.260;2024-01-25T04:50:46;4.13;;;3.83;;
6432;SDS011;3249;42.690;23.260;2024-01-25T04:53:16;4.67;;;4.27;;
6432;SDS011;3249;42.690;23.260;2024-01-25T04:55:45;5.10;;;4.70;;
6432;SDS011;3249;42.690;23.260;2024-01-25T04:58:14;7.47;;;4.80;;
6432;SDS011;3249;42.690;23.260;2024-01-25T05:00:46;5.73;;;5.20;;
6432;SDS011;3249;42.690;23.260;2024-01-25T05:03:18;12.60;;;8.83;;
6432;SDS011;3249;42.690;23.260;2024-01-25T05:05:48;6.00;;;5.10;;
6432;SDS011;3249;42.690;23.260;2024-01-25T05:08:17;5.03;;;4.60;;
6432;SDS011;3249;42.690;23.260;2024-01-25T05:10:46;4.70;;;4.23;;
6432;SDS011;3249;42.690;23.260;2024-01-25T05:13:15;3.70;;;3.50;;
6432;SDS011;3249;42.690;23.260;2024-01-25T05:15:47;3.57;;;3.27;;
6432;SDS011;3249;42.690;23.260;2024-01-25T05:18:18;6.37;;;3.60;;
6432;SDS011;3249;42.690;23.260;2024-01-25T05:20:47;3.93;;;3.60;;
6432;SDS011;3249;42.690;23.260;2024-01-25T05:23:16;3.60;;;3.40;;
6432;SDS011;3249;42.690;23.260;2024-01-25T05:25:45;2.50;;;2.40;;
6432;SDS011;3249;42.690;23.260;2024-01-25T05:28:14;3.03;;;2.50;;
6432;SDS011;3249;42.690;23.260;2024-01-25T05:30:44;2.70;;;2.57;;
6432;SDS011;3249;42.690;23.260;2024-01-25T05:33:17;2.80;;;2.60;;
6432;SDS011;3249;42.690;23.260;2024-01-25T05:35:46;1.60;;;1.60;;
6432;SDS011;3249;42.690;23.260;2024-01-25T05:38:15;2.77;;;2.50;;
6432;SDS011;3249;42.690;23.260;2024-01-25T05:40:44;3.23;;;2.47;;
6432;SDS011;3249;42.690;23.260;2024-01-25T05:43:14;2.60;;;2.50;;
6432;SDS011;3249;42.690;23.260;2024-01-25T05:45:44;2.50;;;2.40;;
6432;SDS011;3249;42.690;23.260;2024-01-25T05:48:17;3.73;;;2.93;;
6432;SDS011;3249;42.690;23.260;2024-01-25T05:50:47;2.70;;;2.60;;
6432;SDS011;3249;42.690;23.260;2024-01-25T05:53:16;2.97;;;2.77;;
6432;SDS011;3249;42.690;23.260;2024-01-25T05:55:47;3.93;;;2.60;;
6432;SDS011;3249;42.690;23.260;2024-01-25T05:58:16;2.50;;;2.40;;
6432;SDS011;3249;42.690;23.260;2024-01-25T06:00:45;3.53;;;2.83;;
6432;SDS011;3249;42.690;23.260;2024-01-25T06:03:18;3.97;;;3.23;;
6432;SDS011;3249;42.690;23.260;2024-01-25T06:05:47;4.03;;;3.60;;
6432;SDS011;3249;42.690;23.260;2024-01-25T06:08:16;4.77;;;3.97;;
6432;SDS011;3249;42.690;23.260;2024-01-25T06:10:45;4.17;;;3.87;;
6432;SDS011;3249;42.690;23.260;2024-01-25T06:13:16;6.13;;;5.00;;
6432;SDS011;3249;42.690;23.260;2024-01-25T06:15:45;13.33;;;7.63;;
6432;SDS011;3249;42.690;23.260;2024-01-25T06:18:14;12.17;;;8.13;;
6432;SDS011;3249;42.690;23.260;2024-01-25T06:20:46;7.73;;;6.33;;
6432;SDS011;3249;42.690;23.260;2024-01-25T06:23:16;9.70;;;5.50;;
6432;SDS011;3249;42.690;23.260;2024-01-25T06:25:46;7.10;;;6.17;;
6432;SDS011;3249;42.690;23.260;2024-01-25T06:28:15;5.53;;;5.03;;
6432;SDS011;3249;42.690;23.260;2024-01-25T06:30:45;5.50;;;4.80;;
6432;SDS011;3249;42.690;23.260;2024-01-25T06:33:14;4.43;;;4.03;;
6432;SDS011;3249;42.690;23.260;2024-01-25T06:35:48;6.93;;;5.43;;
6432;SDS011;3249;42.690;23.260;2024-01-25T06:38:17;3.23;;;3.03;;
6432;SDS011;3249;42.690;23.260;2024-01-25T06:40:47;10.40;;;7.73;;
6432;SDS011;3249;42.690;23.260;2024-01-25T06:43:16;5.60;;;5.10;;
6432;SDS011;3249;42.690;23.260;2024-01-25T06:45:46;6.93;;;5.17;;
6432;SDS011;3249;42.690;23.260;2024-01-25T06:48:15;5.80;;;4.83;;
6432;SDS011;3249;42.690;23.260;2024-01-25T06:50:46;7.37;;;4.50;;
6432;SDS011;3249;42.690;23.260;2024-01-25T06:53:16;5.13;;;4.30;;
6432;SDS011;3249;42.690;23.260;2024-01-25T06:55:45;4.73;;;4.30;;
6432;SDS011;3249;42.690;23.260;2024-01-25T06:58:15;8.67;;;4.30;;
6432;SDS011;3249;42.690;23.260;2024-01-25T07:00:44;5.53;;;3.70;;
6432;SDS011;3249;42.690;23.260;2024-01-25T07:03:14;5.60;;;4.00;;
6432;SDS011;3249;42.690;23.260;2024-01-25T07:05:43;3.87;;;3.50;;
6432;SDS011;3249;42.690;23.260;2024-01-25T07:08:15;4.73;;;3.50;;
6432;SDS011;3249;42.690;23.260;2024-01-25T07:10:45;6.13;;;4.30;;
6432;SDS011;3249;42.690;23.260;2024-01-25T07:13:14;3.17;;;2.90;;
6432;SDS011;3249;42.690;23.260;2024-01-25T07:15:43;3.40;;;3.20;;
6432;SDS011;3249;42.690;23.260;2024-01-25T07:18:13;5.20;;;4.60;;
6432;SDS011;3249;42.690;23.260;2024-01-25T07:20:42;5.93;;;4.50;;
6432;SDS011;3249;42.690;23.260;2024-01-25T07:23:14;6.20;;;4.43;;
6432;SDS011;3249;42.690;23.260;2024-01-25T07:25:44;4.30;;;3.33;;
6432;SDS011;3249;42.690;23.260;2024-01-25T07:28:13;3.53;;;2.80;;
6432;SDS011;3249;42.690;23.260;2024-01-25T07:30:42;3.47;;;3.17;;
6432;SDS011;3249;42.690;23.260;2024-01-25T07:33:13;4.03;;;3.63;;
6432;SDS011;3249;42.690;23.260;2024-01-25T07:35:42;5.93;;;3.40;;
6432;SDS011;3249;42.690;23.260;2024-01-25T07:38:16;3.23;;;2.77;;
6432;SDS011;3249;42.690;23.260;2024-01-25T07:40:45;3.87;;;3.17;;
6432;SDS011;3249;42.690;23.260;2024-01-25T07:43:14;4.50;;;3.83;;
6432;SDS011;3249;42.690;23.260;2024-01-25T07:45:45;4.83;;;3.33;;
6432;SDS011;3249;42.690;23.260;2024-01-25T07:48:14;5.13;;;2.97;;
6432;SDS011;3249;42.690;23.260;2024-01-25T07:50:46;3.37;;;3.07;;
6432;SDS011;3249;42.690;23.260;2024-01-25T07:53:18;5.80;;;3.10;;
6432;SDS011;3249;42.690;23.260;2024-01-25T07:55:48;3.37;;;3.10;;
6432;SDS011;3249;42.690;23.260;2024-01-25T07:58:17;5.00;;;3.53;;
6432;SDS011;3249;42.690;23.260;2024-01-25T08:00:46;4.53;;;3.17;;
6432;SDS011;3249;42.690;23.260;2024-01-25T08:03:16;10.93;;;3.07;;
6432;SDS011;3249;42.690;23.260;2024-01-25T08:05:46;8.53;;;3.53;;
6432;SDS011;3249;42.690;23.260;2024-01-25T08:08:20;6.53;;;3.53;;
6432;SDS011;3249;42.690;23.260;2024-01-25T08:10:49;4.53;;;3.10;;
6432;SDS011;3249;42.690;23.260;2024-01-25T08:13:18;4.40;;;3.43;;
6432;SDS011;3249;42.690;23.260;2024-01-25T08:15:48;6.33;;;3.27;;
6432;SDS011;3249;42.690;23.260;2024-01-25T08:18:19;4.03;;;3.60;;
6432;SDS011;3249;42.690;23.260;2024-01-25T08:20:48;4.57;;;3.60;;
6432;SDS011;3249;42.690;23.260;2024-01-25T08:23:21;4.50;;;3.07;;
6432;SDS011;3249;42.690;23.260;2024-01-25T08:25:50;7.63;;;3.73;;
6432;SDS011;3249;42.690;23.260;2024-01-25T08:28:20;6.67;;;3.23;;
6432;SDS011;3249;42.690;23.260;2024-01-25T08:30:49;7.40;;;3.33;;
6432;SDS011;3249;42.690;23.260;2024-01-25T08:33:18;5.03;;;3.80;;
6432;SDS011;3249;42.690;23.260;2024-01-25T08:35:50;3.27;;;2.97;;
6432;SDS011;3249;42.690;23.260;2024-01-25T08:38:22;5.83;;;3.17;;
6432;SDS011;3249;42.690;23.260;2024-01-25T08:40:51;6.07;;;3.87;;
6432;SDS011;3249;42.690;23.260;2024-01-25T08:43:21;7.13;;;3.73;;
6432;SDS011;3249;42.690;23.260;2024-01-25T08:45:50;7.37;;;4.03;;
6432;SDS011;3249;42.690;23.260;2024-01-25T08:48:20;6.33;;;3.73;;
6432;SDS011;3249;42.690;23.260;2024-01-25T08:50:49;7.67;;;3.37;;
6432;SDS011;3249;42.690;23.260;2024-01-25T08:53:22;6.93;;;3.40;;
6432;SDS011;3249;42.690;23.260;2024-01-25T08:55:53;4.73;;;3.23;;
6432;SDS011;3249;42.690;23.260;2024-01-25T08:58:22;5.17;;;3.10;;
6432;SDS011;3249;42.690;23.260;2024-01-25T09:00:51;6.77;;;4.17;;
6432;SDS011;3249;42.690;23.260;2024-01-25T09:03:20;7.77;;;4.17;;
6432;SDS011;3249;42.690;23.260;2024-01-25T09:05:50;5.83;;;4.17;;
6432;SDS011;3249;42.690;23.260;2024-01-25T09:08:22;4.13;;;3.67;;
6432;SDS011;3249;42.690;23.260;2024-01-25T09:10:51;7.97;;;3.63;;
6432;SDS011;3249;42.690;23.260;2024-01-25T09:13:20;5.20;;;3.50;;
6432;SDS011;3249;42.690;23.260;2024-01-25T09:15:50;7.90;;;3.73;;
6432;SDS011;3249;42.690;23.260;2024-01-25T09:18:19;7.40;;;4.20;;
6432;SDS011;3249;42.690;23.260;2024-01-25T09:20:48;10.47;;;4.87;;
6432;SDS011;3249;42.690;23.260;2024-01-25T09:23:17;5.77;;;4.47;;
6432;SDS011;3249;42.690;23.260;2024-01-25T09:25:49;7.43;;;4.47;;
6432;SDS011;3249;42.690;23.260;2024-01-25T09:28:18;10.60;;;5.60;;
6432;SDS011;3249;42.690;23.260;2024-01-25T09:30:49;6.10;;;4.80;;
6432;SDS011;3249;42.690;23.260;2024-01-25T09:33:18;6.80;;;4.97;;
6432;SDS011;3249;42.690;23.260;2024-01-25T09:35:47;8.93;;;6.30;;
6432;SDS011;3249;42.690;23.260;2024-01-25T09:38:16;7.80;;;6.33;;
6432;SDS011;3249;42.690;23.260;2024-01-25T09:40:45;7.13;;;6.07;;
6432;SDS011;3249;42.690;23.260;2024-01-25T09:43:17;9.90;;;7.13;;
6432;SDS011;3249;42.690;23.260;2024-01-25T09:45:48;18.93;;;6.23;;
6432;SDS011;3249;42.690;23.260;2024-01-25T09:48:21;6.27;;;4.67;;
6432;SDS011;3249;42.690;23.260;2024-01-25T09:50:53;5.60;;;5.03;;
6432;SDS011;3249;42.690;23.260;2024-01-25T09:53:24;4.93;;;4.00;;
6432;SDS011;3249;42.690;23.260;2024-01-25T09:55:56;5.57;;;3.67;;
6432;SDS011;3249;42.690;23.260;2024-01-25T09:58:34;7.30;;;4.47;;
6432;SDS011;3249;42.690;23.260;2024-01-25T10:01:08;9.90;;;4.83;;
6432;SDS011;3249;42.690;23.260;2024-01-25T10:03:38;6.80;;;4.73;;
6432;SDS011;3249;42.690;23.260;2024-01-25T10:06:11;10.20;;;6.43;;
6432;SDS011;3249;42.690;23.260;2024-01-25T10:08:41;9.27;;;4.60;;
6432;SDS011;3249;42.690;23.260;2024-01-25T10:11:10;4.93;;;3.83;;
6432;SDS011;3249;42.690;23.260;2024-01-25T10:13:44;6.13;;;4.70;;
6432;SDS011;3249;42.690;23.260;2024-01-25T10:16:16;8.23;;;4.93;;
6432;SDS011;3249;42.690;23.260;2024-01-25T10:18:47;6.33;;;4.80;;
6432;SDS011;3249;42.690;23.260;2024-01-25T10:21:17;7.73;;;5.33;;
6432;SDS011;3249;42.690;23.260;2024-01-25T10:23:47;5.77;;;5.07;;
6432;SDS011;3249;42.690;23.260;2024-01-25T10:26:17;7.73;;;5.20;;
6432;SDS011;3249;42.690;23.260;2024-01-25T10:28:53;7.27;;;5.10;;
6432;SDS011;3249;42.690;23.260;2024-01-25T10:31:23;7.13;;;5.50;;
6432;SDS011;3249;42.690;23.260;2024-01-25T10:33:53;6.40;;;5.30;;
6432;SDS011;3249;42.690;23.260;2024-01-25T10:36:22;9.37;;;6.30;;
6432;SDS011;3249;42.690;23.260;2024-01-25T10:38:53;9.13;;;5.60;;
6432;SDS011;3249;42.690;23.260;2024-01-25T10:41:24;8.03;;;5.10;;
6432;SDS011;3249;42.690;23.260;2024-01-25T10:43:56;9.57;;;5.67;;
6432;SDS011;3249;42.690;23.260;2024-01-25T10:46:26;10.17;;;5.50;;
6432;SDS011;3249;42.690;23.260;2024-01-25T10:48:57;8.83;;;5.90;;
6432;SDS011;3249;42.690;23.260;2024-01-25T10:51:27;8.33;;;4.60;;
6432;SDS011;3249;42.690;23.260;2024-01-25T10:53:59;6.40;;;4.00;;
6432;SDS011;3249;42.690;23.260;2024-01-25T10:56:31;9.13;;;4.07;;
6432;SDS011;3249;42.690;23.260;2024-01-25T10:59:03;7.43;;;4.63;;
6432;SDS011;3249;42.690;23.260;2024-01-25T11:01:33;6.47;;;5.10;;
6432;SDS011;3249;42.690;23.260;2024-01-25T11:04:11;6.23;;;4.13;;
6432;SDS011;3249;42.690;23.260;2024-01-25T11:06:40;5.53;;;4.20;;
6432;SDS011;3249;42.690;23.260;2024-01-25T11:09:10;4.40;;;3.90;;
6432;SDS011;3249;42.690;23.260;2024-01-25T11:11:47;7.93;;;5.20;;
6432;SDS011;3249;42.690;23.260;2024-01-25T11:14:20;4.70;;;4.27;;
6432;SDS011;3249;42.690;23.260;2024-01-25T11:16:49;7.60;;;5.27;;
6432;SDS011;3249;42.690;23.260;2024-01-25T11:19:18;9.83;;;5.77;;
6432;SDS011;3249;42.690;23.260;2024-01-25T11:21:49;7.83;;;4.93;;
6432;SDS011;3249;42.690;23.260;2024-01-25T11:24:21;7.67;;;4.63;;
6432;SDS011;3249;42.690;23.260;2024-01-25T11:26:53;8.93;;;4.77;;
6432;SDS011;3249;42.690;23.260;2024-01-25T11:29:25;7.50;;;5.13;;
6432;SDS011;3249;42.690;23.260;2024-01-25T11:31:54;5.03;;;4.10;;
6432;SDS011;3249;42.690;23.260;2024-01-25T11:34:23;5.40;;;3.40;;
6432;SDS011;3249;42.690;23.260;2024-01-25T11:36:54;7.43;;;5.13;;
6432;SDS011;3249;42.690;23.260;2024-01-25T11:39:23;5.50;;;3.80;;
6432;SDS011;3249;42.690;23.260;2024-01-25T11:41:52;6.30;;;4.37;;
6432;SDS011;3249;42.690;23.260;2024-01-25T11:44:25;4.30;;;3.90;;
6432;SDS011;3249;42.690;23.260;2024-01-25T11:46:54;8.47;;;5.40;;
6432;SDS011;3249;42.690;23.260;2024-01-25T11:49:24;9.87;;;4.17;;
6432;SDS011;3249;42.690;23.260;2024-01-25T11:51:53;5.90;;;4.53;;
6432;SDS011;3249;42.690;23.260;2024-01-25T11:54:23;7.33;;;4.30;;
6432;SDS011;3249;42.690;23.260;2024-01-25T11:56:52;6.80;;;4.00;;
6432;SDS011;3249;42.690;23.260;2024-01-25T11:59:25;4.70;;;4.30;;
6432;SDS011;3249;42.690;23.260;2024-01-25T12:01:54;5.70;;;3.80;;
6432;SDS011;3249;42.690;23.260;2024-01-25T12:04:24;4.70;;;4.00;;
6432;SDS011;3249;42.690;23.260;2024-01-25T12:06:53;5.57;;;4.20;;
6432;SDS011;3249;42.690;23.260;2024-01-25T12:09:23;8.03;;;4.33;;
6432;SDS011;3249;42.690;23.260;2024-01-25T12:11:52;6.60;;;4.33;;
6432;SDS011;3249;42.690;23.260;2024-01-25T12:14:27;7.47;;;4.03;;
6432;SDS011;3249;42.690;23.260;2024-01-25T12:16:56;5.13;;;4.07;;
6432;SDS011;3249;42.690;23.260;2024-01-25T12:19:28;6.90;;;4.13;;
6432;SDS011;3249;42.690;23.260;2024-01-25T12:21:57;11.33;;;4.70;;
6432;SDS011;3249;42.690;23.260;2024-01-25T12:24:26;9.63;;;4.83;;
6432;SDS011;3249;42.690;23.260;2024-01-25T12:26:55;8.97;;;4.07;;
6432;SDS011;3249;42.690;23.260;2024-01-25T12:29:27;4.87;;;3.53;;
6432;SDS011;3249;42.690;23.260;2024-01-25T12:31:57;6.30;;;3.63;;
6432;SDS011;3249;42.690;23.260;2024-01-25T12:34:27;7.37;;;4.83;;
6432;SDS011;3249;42.690;23.260;2024-01-25T12:36:57;4.13;;;3.70;;
6432;SDS011;3249;42.690;23.260;2024-01-25T12:39:26;5.80;;;4.20;;
6432;SDS011;3249;42.690;23.260;2024-01-25T12:41:55;9.37;;;4.07;;
6432;SDS011;3249;42.690;23.260;2024-01-25T12:44:27;4.37;;;3.97;;
6432;SDS011;3249;42.690;23.260;2024-01-25T12:46:56;5.77;;;4.10;;
6432;SDS011;3249;42.690;23.260;2024-01-25T12:49:28;5.83;;;4.63;;
6432;SDS011;3249;42.690;23.260;2024-01-25T12:51:57;4.90;;;3.60;;
6432;SDS011;3249;42.690;23.260;2024-01-25T12:54:27;6.93;;;4.47;;
6432;SDS011;3249;42.690;23.260;2024-01-25T12:56:56;4.47;;;4.00;;
6432;SDS011;3249;42.690;23.260;2024-01-25T12:59:28;10.33;;;5.37;;
6432;SDS011;3249;42.690;23.260;2024-01-25T13:01:59;7.23;;;3.97;;
6432;SDS011;3249;42.690;23.260;2024-01-25T13:04:28;7.37;;;4.23;;
6432;SDS011;3249;42.690;23.260;2024-01-25T13:06:57;5.17;;;3.77;;
6432;SDS011;3249;42.690;23.260;2024-01-25T13:09:27;6.37;;;4.10;;
6432;SDS011;3249;42.690;23.260;2024-01-25T13:12:02;9.50;;;4.77;;
6432;SDS011;3249;42.690;23.260;2024-01-25T13:14:35;6.80;;;4.37;;
6432;SDS011;3249;42.690;23.260;2024-01-25T13:17:04;5.40;;;3.83;;
6432;SDS011;3249;42.690;23.260;2024-01-25T13:19:33;4.53;;;3.37;;
6432;SDS011;3249;42.690;23.260;2024-01-25T13:22:04;4.73;;;3.83;;
6432;SDS011;3249;42.690;23.260;2024-01-25T13:24:33;7.00;;;5.00;;
6432;SDS011;3249;42.690;23.260;2024-01-25T13:27:03;4.50;;;4.00;;
6432;SDS011;3249;42.690;23.260;2024-01-25T13:29:35;5.90;;;3.93;;
6432;SDS011;3249;42.690;23.260;2024-01-25T13:32:05;4.63;;;4.00;;
6432;SDS011;3249;42.690;23.260;2024-01-25T13:34:36;5.73;;;4.67;;
6432;SDS011;3249;42.690;23.260;2024-01-25T13:37:05;11.67;;;6.73;;
6432;SDS011;3249;42.690;23.260;2024-01-25T13:39:34;7.50;;;5.03;;
6432;SDS011;3249;42.690;23.260;2024-01-25T13:42:03;5.83;;;4.50;;
6432;SDS011;3249;42.690;23.260;2024-01-25T13:44:36;6.20;;;3.90;;
6432;SDS011;3249;42.690;23.260;2024-01-25T13:47:06;5.93;;;4.97;;
6432;SDS011;3249;42.690;23.260;2024-01-25T13:49:36;11.67;;;4.07;;
6432;SDS011;3249;42.690;23.260;2024-01-25T13:52:05;7.77;;;4.60;;
6432;SDS011;3249;42.690;23.260;2024-01-25T13:54:34;9.73;;;4.70;;
6432;SDS011;3249;42.690;23.260;2024-01-25T13:57:04;10.33;;;4.40;;
6432;SDS011;3249;42.690;23.260;2024-01-25T13:59:33;6.87;;;5.00;;
6432;SDS011;3249;42.690;23.260;2024-01-25T14:02:05;9.50;;;4.53;;
6432;SDS011;3249;42.690;23.260;2024-01-25T14:04:34;6.57;;;4.37;;
6432;SDS011;3249;42.690;23.260;2024-01-25T14:07:03;8.83;;;4.67;;
6432;SDS011;3249;42.690;23.260;2024-01-25T14:09:33;9.97;;;5.30;;
6432;SDS011;3249;42.690;23.260;2024-01-25T14:12:03;6.87;;;4.40;;
6432;SDS011;3249;42.690;23.260;2024-01-25T14:14:33;8.80;;;4.20;;
6432;SDS011;3249;42.690;23.260;2024-01-25T14:17:07;12.60;;;4.77;;
6432;SDS011;3249;42.690;23.260;2024-01-25T14:19:37;8.00;;;4.43;;
6432;SDS011;3249;42.690;23.260;2024-01-25T14:22:06;9.80;;;4.87;;
6432;SDS011;3249;42.690;23.260;2024-01-25T14:24:36;7.40;;;4.10;;
6432;SDS011;3249;42.690;23.260;2024-01-25T14:27:06;7.10;;;4.37;;
6432;SDS011;3249;42.690;23.260;2024-01-25T14:29:35;10.13;;;5.50;;
6432;SDS011;3249;42.690;23.260;2024-01-25T14:32:07;9.83;;;5.37;;
6432;SDS011;3249;42.690;23.260;2024-01-25T14:34:37;10.20;;;4.87;;
6432;SDS011;3249;42.690;23.260;2024-01-25T14:37:06;6.43;;;4.87;;
6432;SDS011;3249;42.690;23.260;2024-01-25T14:39:36;9.43;;;4.80;;
6432;SDS011;3249;42.690;23.260;2024-01-25T14:42:09;8.83;;;4.57;;
6432;SDS011;3249;42.690;23.260;2024-01-25T14:44:38;4.63;;;4.23;;
6432;SDS011;3249;42.690;23.260;2024-01-25T14:47:10;6.17;;;3.93;;
6432;SDS011;3249;42.690;23.260;2024-01-25T14:49:47;10.20;;;4.20;;
6432;SDS011;3249;42.690;23.260;2024-01-25T14:52:17;13.00;;;4.67;;
6432;SDS011;3249;42.690;23.260;2024-01-25T14:54:46;6.87;;;4.77;;
6432;SDS011;3249;42.690;23.260;2024-01-25T14:57:16;6.33;;;4.20;;
6432;SDS011;3249;42.690;23.260;2024-01-25T14:59:45;6.70;;;4.20;;
6432;SDS011;3249;42.690;23.260;2024-01-25T15:02:18;5.97;;;4.10;;
6432;SDS011;3249;42.690;23.260;2024-01-25T15:04:47;7.23;;;3.90;;
6432;SDS011;3249;42.690;23.260;2024-01-25T15:07:17;10.40;;;4.13;;
6432;SDS011;3249;42.690;23.260;2024-01-25T15:09:47;8.00;;;4.47;;
6432;SDS011;3249;42.690;23.260;2024-01-25T15:12:16;4.57;;;4.00;;
6432;SDS011;3249;42.690;23.260;2024-01-25T15:14:46;8.80;;;4.73;;